Airfield :
LOGIN :

Register | Disclaimer

   EN    FR    IT 

 










Legend :    VFR   Marginal VFR   IFR   Intensive IFR   Very Intensive IFR
Visi :
Ceiling :
>= 8 km
>= 3000ft
5 to 8 km
1000 to 3000 ft
1500m to 5 km
500 to 1000 ft
800 to 1500m
200 to 500 ft
< 800m
< 200 ft
Symbols :   Thunderstorms  Fog  Heavy snow  Heavy precipitations  Wind > 20 kt
SIGMETs :     Misc.  Thunderstorms  Icing  Turbulence  Mountain Waves  Volcanic Ashes







- Airport Elevation : 659 ft
- IATA code : LYN
- Download approach charts


LFLY - Lyon Bron

CURRENT METAR :
  • 220600Z AUTO 00000KT 5000 BR BKN026 OVC032 08/08 Q1018 TEMPO BKN007 OVC015

EXPIRED METARs :
  • 220530Z AUTO VRB01KT 4500 -RA BR OVC031/// ///TCU 08/08 Q1018 TEMPO BKN007 OVC015
  • 220500Z AUTO 11002KT 6000 OVC036 08/07 Q1017 TEMPO 4000 -DZ BKN007 OVC015
  • 220430Z AUTO 08002KT 5000 RA BR BKN036/// OVC042/// ///TCU 08/07 Q1017 TEMPO NSW BKN007 OVC015
  • 220400Z AUTO 03001KT 6000 -RA OVC036/// ///TCU 08/07 Q1018 TEMPO 4000 -DZ BKN007 OVC015
  • 220330Z AUTO VRB01KT 6000 -RA OVC038 08/07 Q1018 TEMPO 4000 -DZ BKN007 OVC015

TAF TAF LFLY
Valid from the 22 at 06:00 until the 23 at 06:00 UTC


220500Z 2206/2306 18004KT 8000 BKN030
TEMPO 2206/2224 6000 -RADZ
PROB30
TEMPO 2206/2208 4000 -DZ BKN007 OVC015
BECMG 2216/2218 32012KT
BECMG 2223/2301 34003KT
ATIS : +33 4 72 15 87 96
No reported NOTAMs for that airfield.
3 SIGMETs reported for the Marseille FIR (LFMM) :
 
Severe turbulence
LFMM SIGMET 3 VALID 220600/220700 LFPW
LFMM MARSEILLE FIR/UIR SEV TURB FCST WI N4545 E00700 - N4400 E00700 - N4400 E00715 - N4215 E00630 - N4315 E00500 - N4530 E00600 - N4545 E00700 SFC/FL120 STNR NC=
Severe turbulence
LFMM SIGMET 2 VALID 220400/220700 LFPW
LFMM MARSEILLE FIR/UIR SEV TURB FCST WI N4215 E00300 - N4215 E00230 - N4545 E00300 - N4600 E00400 - N4500 E00430 - N4215 E00300 SFC/FL080 STNR NC=
Severe turbulence
LFMM SIGMET 1 VALID 220300/220700 LFPW
LFMM MARSEILLE FIR/UIR SEV TURB FCST WI N4615 E00700 - N4400 E00700 - N4400 E00715 - N4315 E00645 - N4145 E00715 - N4145 E00600 - N4430 E00515 - N4615 E00700 SFC/FL120 STNR NC=



MET'MAP, your aeronautical weather chart ! - Copyright ORBIFLY December 2007 - Disclaimer

ORBIFLY MET'MAP TEAM :

Programming & Development : Alexandra Zaïnal
Concept & Development : Baudouin d'Aumeries
Co-Development & Prog : Marc-Olivier Méhu
Technical & hardware support : Manuel Goepfert

Contact : metmap@orbifly.com




SOURCES & CREDITS :

   NOAA